Terminal Aerodrome Forecast
Issued by NWS

Home | Current Version | Previous Version | Text Only | Print | Product List | Glossary Off
Versions: 1 2 3 4 5 6 7 8 9 10 11 12 13 14 15 16 17

000
FTUS43 KMPX 190500
TAFRWF
TAF
KRWF 190521Z 1906/2006 16014KT P6SM BKN100
     FM191100 17015G23KT P6SM SCT015 OVC060
      TEMPO 1911/1914 BKN015
     FM191400 19020G27KT P6SM -SHRA OVC015
     FM191900 20018G25KT P6SM VCSH SCT020 OVC035
     FM200100 21012KT P6SM BKN045=

USA.gov is the U.S. government's official web portal to all federal, state and local government web resources and services.